sensor_id;sensor_type;location;lat;lon;timestamp;pressure;altitude;pressure_sealevel;temperature;humidity
16451;BME280;12243;42.708;23.310;2024-03-07T00:00:51;94817.03;;;8.78;100.00
16451;BME280;12243;42.708;23.310;2024-03-07T00:03:19;94820.34;;;8.80;100.00
16451;BME280;12243;42.708;23.310;2024-03-07T00:05:48;94825.63;;;8.78;100.00
16451;BME280;12243;42.708;23.310;2024-03-07T00:08:15;94811.34;;;8.84;100.00
16451;BME280;12243;42.708;23.310;2024-03-07T00:10:42;94812.31;;;8.83;100.00
16451;BME280;12243;42.708;23.310;2024-03-07T00:13:09;94812.06;;;8.75;100.00
16451;BME280;12243;42.708;23.310;2024-03-07T00:15:38;94812.81;;;8.66;100.00
16451;BME280;12243;42.708;23.310;2024-03-07T00:18:06;94802.09;;;8.59;100.00
16451;BME280;12243;42.708;23.310;2024-03-07T00:20:32;94807.78;;;8.53;100.00
16451;BME280;12243;42.708;23.310;2024-03-07T00:23:02;94806.59;;;8.46;100.00
16451;BME280;12243;42.708;23.310;2024-03-07T00:25:29;94797.53;;;8.40;100.00
16451;BME280;12243;42.708;23.310;2024-03-07T00:27:56;94793.03;;;8.42;100.00
16451;BME280;12243;42.708;23.310;2024-03-07T00:30:28;94794.34;;;8.25;100.00
16451;BME280;12243;42.708;23.310;2024-03-07T00:32:55;94797.53;;;8.18;100.00
16451;BME280;12243;42.708;23.310;2024-03-07T00:35:22;94789.38;;;8.11;100.00
16451;BME280;12243;42.708;23.310;2024-03-07T00:37:49;94792.81;;;8.11;100.00
16451;BME280;12243;42.708;23.310;2024-03-07T00:40:18;94787.03;;;8.08;100.00
16451;BME280;12243;42.708;23.310;2024-03-07T00:42:45;94789.53;;;8.09;100.00
16451;BME280;12243;42.708;23.310;2024-03-07T00:45:12;94793.03;;;8.08;100.00
16451;BME280;12243;42.708;23.310;2024-03-07T00:47:39;94796.34;;;7.99;100.00
16451;BME280;12243;42.708;23.310;2024-03-07T00:50:07;94790.72;;;8.05;100.00
16451;BME280;12243;42.708;23.310;2024-03-07T00:52:34;94786.22;;;8.07;100.00
16451;BME280;12243;42.708;23.310;2024-03-07T00:55:02;94785.03;;;8.00;100.00
16451;BME280;12243;42.708;23.310;2024-03-07T00:57:30;94780.09;;;7.97;100.00
16451;BME280;12243;42.708;23.310;2024-03-07T00:59:57;94771.63;;;7.95;100.00
16451;BME280;12243;42.708;23.310;2024-03-07T01:02:24;94774.91;;;7.97;100.00
16451;BME280;12243;42.708;23.310;2024-03-07T01:04:52;94776.53;;;7.98;100.00
16451;BME280;12243;42.708;23.310;2024-03-07T01:07:20;94770.44;;;7.88;100.00
16451;BME280;12243;42.708;23.310;2024-03-07T01:09:47;94766.91;;;7.89;100.00
16451;BME280;12243;42.708;23.310;2024-03-07T01:12:14;94764.06;;;7.92;100.00
16451;BME280;12243;42.708;23.310;2024-03-07T01:14:42;94763.59;;;7.87;100.00
16451;BME280;12243;42.708;23.310;2024-03-07T01:17:09;94762.16;;;7.83;100.00
16451;BME280;12243;42.708;23.310;2024-03-07T01:19:37;94759.34;;;7.75;100.00
16451;BME280;12243;42.708;23.310;2024-03-07T01:22:04;94757.44;;;7.77;100.00
16451;BME280;12243;42.708;23.310;2024-03-07T01:24:31;94762.03;;;7.73;100.00
16451;BME280;12243;42.708;23.310;2024-03-07T01:26:58;94761.69;;;7.67;100.00
16451;BME280;12243;42.708;23.310;2024-03-07T01:29:26;94763.22;;;7.58;100.00
16451;BME280;12243;42.708;23.310;2024-03-07T01:31:54;94763.81;;;7.73;100.00
16451;BME280;12243;42.708;23.310;2024-03-07T01:34:21;94752.63;;;7.72;100.00
16451;BME280;12243;42.708;23.310;2024-03-07T01:36:48;94746.72;;;7.70;100.00
16451;BME280;12243;42.708;23.310;2024-03-07T01:39:15;94746.13;;;7.67;100.00
16451;BME280;12243;42.708;23.310;2024-03-07T01:41:42;94751.31;;;7.67;100.00
16451;BME280;12243;42.708;23.310;2024-03-07T01:44:09;94748.03;;;7.64;100.00
16451;BME280;12243;42.708;23.310;2024-03-07T01:46:36;94753.09;;;7.66;100.00
16451;BME280;12243;42.708;23.310;2024-03-07T01:49:05;94754.84;;;7.66;100.00
16451;BME280;12243;42.708;23.310;2024-03-07T01:51:33;94759.59;;;7.72;100.00
16451;BME280;12243;42.708;23.310;2024-03-07T01:54:00;94762.53;;;7.67;100.00
16451;BME280;12243;42.708;23.310;2024-03-07T01:56:28;94774.41;;;7.70;100.00
16451;BME280;12243;42.708;23.310;2024-03-07T01:58:56;94774.66;;;7.67;100.00
16451;BME280;12243;42.708;23.310;2024-03-07T02:01:24;94778.78;;;7.69;100.00
16451;BME280;12243;42.708;23.310;2024-03-07T02:03:51;94774.69;;;7.78;100.00
16451;BME280;12243;42.708;23.310;2024-03-07T02:06:19;94770.19;;;7.80;100.00
16451;BME280;12243;42.708;23.310;2024-03-07T02:08:46;94765.94;;;7.79;100.00
16451;BME280;12243;42.708;23.310;2024-03-07T02:11:13;94765.00;;;7.80;100.00
16451;BME280;12243;42.708;23.310;2024-03-07T02:13:40;94756.53;;;7.89;100.00
16451;BME280;12243;42.708;23.310;2024-03-07T02:16:07;94756.75;;;7.86;100.00
16451;BME280;12243;42.708;23.310;2024-03-07T02:18:35;94754.75;;;7.78;100.00
16451;BME280;12243;42.708;23.310;2024-03-07T02:21:07;94753.22;;;7.87;100.00
16451;BME280;12243;42.708;23.310;2024-03-07T02:23:34;94740.03;;;7.79;100.00
16451;BME280;12243;42.708;23.310;2024-03-07T02:26:01;94745.66;;;7.73;100.00
16451;BME280;12243;42.708;23.310;2024-03-07T02:28:28;94733.66;;;7.72;100.00
16451;BME280;12243;42.708;23.310;2024-03-07T02:30:55;94740.94;;;7.67;100.00
16451;BME280;12243;42.708;23.310;2024-03-07T02:33:22;94737.19;;;7.59;100.00
16451;BME280;12243;42.708;23.310;2024-03-07T02:35:49;94753.44;;;7.61;100.00
16451;BME280;12243;42.708;23.310;2024-03-07T02:38:17;94753.22;;;7.64;100.00
16451;BME280;12243;42.708;23.310;2024-03-07T02:40:45;94761.44;;;7.58;100.00
16451;BME280;12243;42.708;23.310;2024-03-07T02:43:12;94767.81;;;7.66;100.00
16451;BME280;12243;42.708;23.310;2024-03-07T02:45:39;94777.94;;;7.57;100.00
16451;BME280;12243;42.708;23.310;2024-03-07T02:48:06;94768.28;;;7.59;100.00
16451;BME280;12243;42.708;23.310;2024-03-07T02:50:35;94765.22;;;7.66;100.00
16451;BME280;12243;42.708;23.310;2024-03-07T02:53:03;94771.22;;;7.55;100.00
16451;BME280;12243;42.708;23.310;2024-03-07T02:55:31;94776.75;;;7.50;100.00
16451;BME280;12243;42.708;23.310;2024-03-07T02:57:58;94788.09;;;7.60;100.00
16451;BME280;12243;42.708;23.310;2024-03-07T03:00:25;94777.72;;;7.60;100.00
16451;BME280;12243;42.708;23.310;2024-03-07T03:02:55;94782.41;;;7.67;100.00
16451;BME280;12243;42.708;23.310;2024-03-07T03:05:22;94786.09;;;7.64;100.00
16451;BME280;12243;42.708;23.310;2024-03-07T03:07:48;94783.59;;;7.62;100.00
16451;BME280;12243;42.708;23.310;2024-03-07T03:10:22;94776.53;;;7.64;100.00
16451;BME280;12243;42.708;23.310;2024-03-07T03:12:53;94782.19;;;7.70;100.00
16451;BME280;12243;42.708;23.310;2024-03-07T03:15:21;94776.78;;;7.73;100.00
16451;BME280;12243;42.708;23.310;2024-03-07T03:17:48;94775.13;;;7.60;100.00
16451;BME280;12243;42.708;23.310;2024-03-07T03:20:15;94774.31;;;7.71;100.00
16451;BME280;12243;42.708;23.310;2024-03-07T03:22:51;94774.53;;;7.68;100.00
16451;BME280;12243;42.708;23.310;2024-03-07T03:25:18;94777.72;;;7.60;100.00
16451;BME280;12243;42.708;23.310;2024-03-07T03:27:46;94779.31;;;7.39;100.00
16451;BME280;12243;42.708;23.310;2024-03-07T03:30:15;94785.94;;;7.43;100.00
16451;BME280;12243;42.708;23.310;2024-03-07T03:32:45;94785.59;;;7.48;100.00
16451;BME280;12243;42.708;23.310;2024-03-07T03:35:13;94789.38;;;7.55;100.00
16451;BME280;12243;42.708;23.310;2024-03-07T03:37:41;94798.66;;;7.46;100.00
16451;BME280;12243;42.708;23.310;2024-03-07T03:40:09;94805.00;;;7.42;100.00
16451;BME280;12243;42.708;23.310;2024-03-07T03:42:37;94783.13;;;7.57;100.00
16451;BME280;12243;42.708;23.310;2024-03-07T03:45:04;94786.31;;;7.50;100.00
16451;BME280;12243;42.708;23.310;2024-03-07T03:47:35;94774.63;;;7.44;100.00
16451;BME280;12243;42.708;23.310;2024-03-07T03:50:03;94777.06;;;7.34;100.00
16451;BME280;12243;42.708;23.310;2024-03-07T03:52:30;94781.88;;;7.28;100.00
16451;BME280;12243;42.708;23.310;2024-03-07T03:54:57;94777.41;;;7.19;100.00
16451;BME280;12243;42.708;23.310;2024-03-07T03:57:24;94778.78;;;7.11;100.00
16451;BME280;12243;42.708;23.310;2024-03-07T03:59:53;94768.16;;;7.03;100.00
16451;BME280;12243;42.708;23.310;2024-03-07T04:02:20;94765.06;;;6.87;100.00
16451;BME280;12243;42.708;23.310;2024-03-07T04:04:49;94763.78;;;6.68;100.00
16451;BME280;12243;42.708;23.310;2024-03-07T04:07:17;94767.09;;;6.71;100.00
16451;BME280;12243;42.708;23.310;2024-03-07T04:09:44;94767.09;;;6.71;100.00
16451;BME280;12243;42.708;23.310;2024-03-07T04:12:12;94766.66;;;6.77;100.00
16451;BME280;12243;42.708;23.310;2024-03-07T04:14:39;94771.28;;;6.60;100.00
16451;BME280;12243;42.708;23.310;2024-03-07T04:17:07;94777.72;;;6.55;100.00
16451;BME280;12243;42.708;23.310;2024-03-07T04:19:35;94778.53;;;6.55;100.00
16451;BME280;12243;42.708;23.310;2024-03-07T04:22:03;94780.41;;;6.53;100.00
16451;BME280;12243;42.708;23.310;2024-03-07T04:24:30;94778.31;;;6.58;100.00
16451;BME280;12243;42.708;23.310;2024-03-07T04:26:58;94785.38;;;6.56;100.00
16451;BME280;12243;42.708;23.310;2024-03-07T04:29:26;94777.41;;;6.59;100.00
16451;BME280;12243;42.708;23.310;2024-03-07T04:31:53;94783.09;;;6.52;100.00
16451;BME280;12243;42.708;23.310;2024-03-07T04:34:20;94780.63;;;6.50;100.00
16451;BME280;12243;42.708;23.310;2024-03-07T04:36:47;94786.84;;;6.48;100.00
16451;BME280;12243;42.708;23.310;2024-03-07T04:39:15;94782.84;;;6.43;100.00
16451;BME280;12243;42.708;23.310;2024-03-07T04:41:52;94789.56;;;6.46;100.00
16451;BME280;12243;42.708;23.310;2024-03-07T04:44:19;94785.25;;;6.58;100.00
16451;BME280;12243;42.708;23.310;2024-03-07T04:46:48;94784.06;;;6.38;100.00
16451;BME280;12243;42.708;23.310;2024-03-07T04:49:16;94785.63;;;6.40;100.00
16451;BME280;12243;42.708;23.310;2024-03-07T04:51:43;94786.81;;;6.24;100.00
16451;BME280;12243;42.708;23.310;2024-03-07T04:54:10;94789.66;;;6.08;100.00
16451;BME280;12243;42.708;23.310;2024-03-07T04:56:38;94793.00;;;5.97;100.00
16451;BME280;12243;42.708;23.310;2024-03-07T04:59:06;94798.75;;;5.88;100.00
16451;BME280;12243;42.708;23.310;2024-03-07T05:01:33;94795.34;;;5.87;100.00
16451;BME280;12243;42.708;23.310;2024-03-07T05:04:00;94806.81;;;5.70;100.00
16451;BME280;12243;42.708;23.310;2024-03-07T05:06:28;94804.66;;;5.64;100.00
16451;BME280;12243;42.708;23.310;2024-03-07T05:08:59;94811.38;;;5.67;100.00
16451;BME280;12243;42.708;23.310;2024-03-07T05:11:27;94813.25;;;5.65;100.00
16451;BME280;12243;42.708;23.310;2024-03-07T05:13:56;94809.41;;;5.70;100.00
16451;BME280;12243;42.708;23.310;2024-03-07T05:16:23;94800.94;;;5.68;100.00
16451;BME280;12243;42.708;23.310;2024-03-07T05:18:50;94807.03;;;5.67;100.00
16451;BME280;12243;42.708;23.310;2024-03-07T05:21:17;94802.25;;;5.61;100.00
16451;BME280;12243;42.708;23.310;2024-03-07T05:24:04;94810.75;;;5.63;100.00
16451;BME280;12243;42.708;23.310;2024-03-07T05:26:31;94815.09;;;5.63;100.00
16451;BME280;12243;42.708;23.310;2024-03-07T05:29:03;94824.06;;;5.57;100.00
16451;BME280;12243;42.708;23.310;2024-03-07T05:31:33;94825.22;;;5.53;100.00
16451;BME280;12243;42.708;23.310;2024-03-07T05:34:01;94826.66;;;5.57;100.00
16451;BME280;12243;42.708;23.310;2024-03-07T05:36:30;94828.34;;;5.58;100.00
16451;BME280;12243;42.708;23.310;2024-03-07T05:38:57;94828.34;;;5.58;100.00
16451;BME280;12243;42.708;23.310;2024-03-07T05:41:25;94827.69;;;5.67;100.00
16451;BME280;12243;42.708;23.310;2024-03-07T05:43:55;94832.06;;;5.80;100.00
16451;BME280;12243;42.708;23.310;2024-03-07T05:46:24;94835.03;;;5.86;100.00
16451;BME280;12243;42.708;23.310;2024-03-07T05:48:51;94825.84;;;5.95;100.00
16451;BME280;12243;42.708;23.310;2024-03-07T05:51:22;94824.50;;;6.02;100.00
16451;BME280;12243;42.708;23.310;2024-03-07T05:53:50;94832.06;;;6.05;100.00
16451;BME280;12243;42.708;23.310;2024-03-07T05:56:17;94822.44;;;6.07;100.00
16451;BME280;12243;42.708;23.310;2024-03-07T05:58:45;94838.88;;;6.06;100.00
16451;BME280;12243;42.708;23.310;2024-03-07T06:01:12;94837.84;;;6.09;100.00
16451;BME280;12243;42.708;23.310;2024-03-07T06:03:41;94840.84;;;6.15;100.00
16451;BME280;12243;42.708;23.310;2024-03-07T06:06:07;94837.41;;;6.28;100.00
16451;BME280;12243;42.708;23.310;2024-03-07T06:08:37;94844.56;;;6.24;100.00
16451;BME280;12243;42.708;23.310;2024-03-07T06:11:04;94840.63;;;6.18;100.00
16451;BME280;12243;42.708;23.310;2024-03-07T06:13:31;94843.63;;;6.25;100.00
16451;BME280;12243;42.708;23.310;2024-03-07T06:15:58;94847.75;;;6.28;100.00
16451;BME280;12243;42.708;23.310;2024-03-07T06:18:29;94845.25;;;6.39;100.00
16451;BME280;12243;42.708;23.310;2024-03-07T06:20:58;94855.53;;;6.52;100.00
16451;BME280;12243;42.708;23.310;2024-03-07T06:23:26;94867.97;;;6.47;100.00
16451;BME280;12243;42.708;23.310;2024-03-07T06:25:54;94873.78;;;6.50;100.00
16451;BME280;12243;42.708;23.310;2024-03-07T06:28:24;94870.75;;;6.56;100.00
16451;BME280;12243;42.708;23.310;2024-03-07T06:30:51;94862.38;;;6.53;100.00
16451;BME280;12243;42.708;23.310;2024-03-07T06:33:18;94863.00;;;6.56;100.00
16451;BME280;12243;42.708;23.310;2024-03-07T06:35:44;94854.91;;;6.61;100.00
16451;BME280;12243;42.708;23.310;2024-03-07T06:38:13;94850.34;;;6.64;100.00
16451;BME280;12243;42.708;23.310;2024-03-07T06:40:40;94849.09;;;6.70;100.00
16451;BME280;12243;42.708;23.310;2024-03-07T06:43:08;94848.72;;;6.87;100.00
16451;BME280;12243;42.708;23.310;2024-03-07T06:45:36;94846.13;;;6.87;100.00
16451;BME280;12243;42.708;23.310;2024-03-07T06:48:04;94853.13;;;6.98;100.00
16451;BME280;12243;42.708;23.310;2024-03-07T06:50:32;94861.97;;;7.07;100.00
16451;BME280;12243;42.708;23.310;2024-03-07T06:52:59;94863.78;;;7.18;100.00
16451;BME280;12243;42.708;23.310;2024-03-07T06:55:28;94867.03;;;7.32;100.00
16451;BME280;12243;42.708;23.310;2024-03-07T06:57:56;94864.09;;;7.37;100.00
16451;BME280;12243;42.708;23.310;2024-03-07T07:00:23;94867.75;;;7.10;100.00
16451;BME280;12243;42.708;23.310;2024-03-07T07:02:52;94864.25;;;7.11;100.00
16451;BME280;12243;42.708;23.310;2024-03-07T07:05:21;94870.63;;;7.19;100.00
16451;BME280;12243;42.708;23.310;2024-03-07T07:07:49;94867.25;;;7.29;100.00
16451;BME280;12243;42.708;23.310;2024-03-07T07:10:16;94859.94;;;6.99;100.00
16451;BME280;12243;42.708;23.310;2024-03-07T07:12:46;94848.94;;;7.08;100.00
16451;BME280;12243;42.708;23.310;2024-03-07T07:15:15;94850.13;;;7.15;100.00
16451;BME280;12243;42.708;23.310;2024-03-07T07:17:43;94837.47;;;7.35;100.00
16451;BME280;12243;42.708;23.310;2024-03-07T07:20:12;94840.66;;;7.38;100.00
16451;BME280;12243;42.708;23.310;2024-03-07T07:22:40;94846.38;;;7.55;100.00
16451;BME280;12243;42.708;23.310;2024-03-07T07:25:08;94855.50;;;7.72;100.00
16451;BME280;12243;42.708;23.310;2024-03-07T07:27:40;94843.50;;;7.93;100.00
16451;BME280;12243;42.708;23.310;2024-03-07T07:30:11;94856.09;;;7.98;100.00
16451;BME280;12243;42.708;23.310;2024-03-07T07:32:39;94844.44;;;8.15;100.00
16451;BME280;12243;42.708;23.310;2024-03-07T07:35:07;94839.16;;;8.39;100.00
16451;BME280;12243;42.708;23.310;2024-03-07T07:37:37;94843.16;;;8.43;100.00
16451;BME280;12243;42.708;23.310;2024-03-07T07:40:06;94842.47;;;8.52;100.00
16451;BME280;12243;42.708;23.310;2024-03-07T07:42:39;94843.22;;;8.75;100.00
16451;BME280;12243;42.708;23.310;2024-03-07T07:45:09;94846.56;;;8.77;100.00
16451;BME280;12243;42.708;23.310;2024-03-07T07:47:38;94841.94;;;8.80;99.69
16451;BME280;12243;42.708;23.310;2024-03-07T07:50:07;94838.16;;;8.85;98.68
16451;BME280;12243;42.708;23.310;2024-03-07T07:52:42;94850.56;;;8.70;99.18
16451;BME280;12243;42.708;23.310;2024-03-07T07:55:11;94845.28;;;8.60;99.50
16451;BME280;12243;42.708;23.310;2024-03-07T07:57:42;94833.97;;;8.50;100.00
16451;BME280;12243;42.708;23.310;2024-03-07T08:00:13;94838.78;;;8.66;100.00
16451;BME280;12243;42.708;23.310;2024-03-07T08:02:51;94837.31;;;8.84;100.00
16451;BME280;12243;42.708;23.310;2024-03-07T08:05:19;94847.38;;;9.10;99.41
16451;BME280;12243;42.708;23.310;2024-03-07T08:07:49;94838.47;;;8.91;98.35
16451;BME280;12243;42.708;23.310;2024-03-07T08:10:17;94843.91;;;8.88;98.79
16451;BME280;12243;42.708;23.310;2024-03-07T08:12:44;94853.72;;;8.85;99.70
16451;BME280;12243;42.708;23.310;2024-03-07T08:15:13;94853.09;;;8.92;100.00
16451;BME280;12243;42.708;23.310;2024-03-07T08:17:41;94851.94;;;8.96;99.86
16451;BME280;12243;42.708;23.310;2024-03-07T08:20:13;94857.97;;;8.97;98.71
16451;BME280;12243;42.708;23.310;2024-03-07T08:22:41;94854.03;;;9.14;99.38
16451;BME280;12243;42.708;23.310;2024-03-07T08:25:09;94854.50;;;9.07;98.52
16451;BME280;12243;42.708;23.310;2024-03-07T08:27:38;94868.44;;;9.06;99.55
16451;BME280;12243;42.708;23.310;2024-03-07T08:30:06;94874.53;;;9.17;98.44
16451;BME280;12243;42.708;23.310;2024-03-07T08:32:40;94885.25;;;9.23;97.20
16451;BME280;12243;42.708;23.310;2024-03-07T08:35:08;94885.16;;;9.25;96.49
16451;BME280;12243;42.708;23.310;2024-03-07T08:37:36;94887.66;;;9.15;97.32
16451;BME280;12243;42.708;23.310;2024-03-07T08:40:04;94885.25;;;9.23;97.44
16451;BME280;12243;42.708;23.310;2024-03-07T08:42:33;94891.28;;;9.24;96.69
16451;BME280;12243;42.708;23.310;2024-03-07T08:45:00;94890.00;;;9.18;97.73
16451;BME280;12243;42.708;23.310;2024-03-07T08:47:29;94892.75;;;9.05;97.00
16451;BME280;12243;42.708;23.310;2024-03-07T08:49:58;94893.00;;;9.02;97.65
16451;BME280;12243;42.708;23.310;2024-03-07T08:52:25;94910.50;;;9.00;97.23
16451;BME280;12243;42.708;23.310;2024-03-07T08:54:53;94894.91;;;9.00;97.17
16451;BME280;12243;42.708;23.310;2024-03-07T08:57:20;94895.59;;;9.02;97.08
16451;BME280;12243;42.708;23.310;2024-03-07T08:59:47;94897.22;;;9.15;97.48
16451;BME280;12243;42.708;23.310;2024-03-07T09:02:14;94897.09;;;9.27;97.99
16451;BME280;12243;42.708;23.310;2024-03-07T09:04:41;94904.41;;;9.54;97.06
16451;BME280;12243;42.708;23.310;2024-03-07T09:07:10;94906.78;;;9.78;95.65
16451;BME280;12243;42.708;23.310;2024-03-07T09:09:37;94908.31;;;9.81;94.02
16451;BME280;12243;42.708;23.310;2024-03-07T09:12:05;94908.75;;;9.86;94.38
16451;BME280;12243;42.708;23.310;2024-03-07T09:14:32;94909.28;;;9.80;93.87
16451;BME280;12243;42.708;23.310;2024-03-07T09:16:59;94911.22;;;9.88;93.50
16451;BME280;12243;42.708;23.310;2024-03-07T09:19:26;94908.63;;;9.67;93.34
16451;BME280;12243;42.708;23.310;2024-03-07T09:21:54;94901.50;;;9.69;92.98
16451;BME280;12243;42.708;23.310;2024-03-07T09:24:22;94911.91;;;9.69;93.78
16451;BME280;12243;42.708;23.310;2024-03-07T09:26:49;94900.50;;;9.60;93.94
16451;BME280;12243;42.708;23.310;2024-03-07T09:29:17;94917.69;;;9.72;93.52
16451;BME280;12243;42.708;23.310;2024-03-07T09:31:45;94917.25;;;9.88;93.22
16451;BME280;12243;42.708;23.310;2024-03-07T09:34:14;94913.50;;;10.02;91.98
16451;BME280;12243;42.708;23.310;2024-03-07T09:36:41;94908.00;;;9.95;91.42
16451;BME280;12243;42.708;23.310;2024-03-07T09:39:08;94905.13;;;9.98;92.25
16451;BME280;12243;42.708;23.310;2024-03-07T09:41:39;94910.28;;;10.10;91.37
16451;BME280;12243;42.708;23.310;2024-03-07T09:44:07;94918.34;;;10.28;89.73
16451;BME280;12243;42.708;23.310;2024-03-07T09:46:35;94915.28;;;10.22;88.74
16451;BME280;12243;42.708;23.310;2024-03-07T09:49:02;94916.19;;;10.33;88.42
16451;BME280;12243;42.708;23.310;2024-03-07T09:51:31;94917.81;;;10.13;88.63
16451;BME280;12243;42.708;23.310;2024-03-07T09:53:59;94920.34;;;10.24;89.56
16451;BME280;12243;42.708;23.310;2024-03-07T09:56:27;94922.66;;;10.38;88.26
16451;BME280;12243;42.708;23.310;2024-03-07T09:58:58;94912.13;;;10.19;87.81
16451;BME280;12243;42.708;23.310;2024-03-07T10:01:27;94897.19;;;10.21;88.96
16451;BME280;12243;42.708;23.310;2024-03-07T10:03:59;94893.03;;;10.09;90.38
16451;BME280;12243;42.708;23.310;2024-03-07T10:06:31;94896.13;;;9.82;92.56
16451;BME280;12243;42.708;23.310;2024-03-07T10:08:59;94883.13;;;9.61;94.62
16451;BME280;12243;42.708;23.310;2024-03-07T10:11:26;94882.63;;;9.67;96.45
16451;BME280;12243;42.708;23.310;2024-03-07T10:13:54;94876.06;;;9.93;98.32
16451;BME280;12243;42.708;23.310;2024-03-07T10:16:22;94881.09;;;10.27;98.44
16451;BME280;12243;42.708;23.310;2024-03-07T10:18:49;94876.28;;;10.63;95.15
16451;BME280;12243;42.708;23.310;2024-03-07T10:21:19;94881.31;;;10.85;95.86
16451;BME280;12243;42.708;23.310;2024-03-07T10:23:46;94881.63;;;11.11;92.15
16451;BME280;12243;42.708;23.310;2024-03-07T10:26:13;94880.97;;;11.09;91.10
16451;BME280;12243;42.708;23.310;2024-03-07T10:28:40;94874.53;;;11.23;90.40
16451;BME280;12243;42.708;23.310;2024-03-07T10:31:07;94874.25;;;11.45;91.85
16451;BME280;12243;42.708;23.310;2024-03-07T10:33:39;94871.25;;;11.69;89.64
16451;BME280;12243;42.708;23.310;2024-03-07T10:36:09;94874.41;;;11.73;87.87
16451;BME280;12243;42.708;23.310;2024-03-07T10:38:39;94870.69;;;11.76;86.12
16451;BME280;12243;42.708;23.310;2024-03-07T10:41:06;94872.59;;;11.83;84.93
16451;BME280;12243;42.708;23.310;2024-03-07T10:43:36;94871.94;;;11.72;86.07
16451;BME280;12243;42.708;23.310;2024-03-07T10:46:10;94869.47;;;11.89;85.63
16451;BME280;12243;42.708;23.310;2024-03-07T10:48:39;94874.41;;;11.73;85.91
16451;BME280;12243;42.708;23.310;2024-03-07T10:51:14;94864.78;;;11.83;86.40
16451;BME280;12243;42.708;23.310;2024-03-07T10:53:53;94867.53;;;11.91;82.84
16451;BME280;12243;42.708;23.310;2024-03-07T10:56:34;94862.59;;;11.88;82.64
16451;BME280;12243;42.708;23.310;2024-03-07T10:59:11;94860.25;;;11.66;83.12
16451;BME280;12243;42.708;23.310;2024-03-07T11:01:49;94862.16;;;11.64;83.38
16451;BME280;12243;42.708;23.310;2024-03-07T11:04:18;94859.16;;;11.59;83.05
16451;BME280;12243;42.708;23.310;2024-03-07T11:06:47;94861.34;;;11.73;82.95
16451;BME280;12243;42.708;23.310;2024-03-07T11:09:15;94856.84;;;11.75;83.27
16451;BME280;12243;42.708;23.310;2024-03-07T11:11:48;94849.00;;;11.85;82.75
16451;BME280;12243;42.708;23.310;2024-03-07T11:14:16;94849.25;;;11.91;82.95
16451;BME280;12243;42.708;23.310;2024-03-07T11:16:44;94850.06;;;12.11;81.33
16451;BME280;12243;42.708;23.310;2024-03-07T11:19:25;94847.06;;;11.97;81.31
16451;BME280;12243;42.708;23.310;2024-03-07T11:21:54;94840.75;;;11.70;82.20
16451;BME280;12243;42.708;23.310;2024-03-07T11:24:28;94843.78;;;11.56;83.01
16451;BME280;12243;42.708;23.310;2024-03-07T11:26:58;94843.94;;;11.35;84.99
16451;BME280;12243;42.708;23.310;2024-03-07T11:29:42;94822.09;;;11.26;86.41
16451;BME280;12243;42.708;23.310;2024-03-07T11:32:10;94841.06;;;11.28;85.89
16451;BME280;12243;42.708;23.310;2024-03-07T11:34:42;94845.44;;;10.99;87.85
16451;BME280;12243;42.708;23.310;2024-03-07T11:37:17;94838.25;;;10.91;87.23
16451;BME280;12243;42.708;23.310;2024-03-07T11:39:49;94835.22;;;10.76;88.91
16451;BME280;12243;42.708;23.310;2024-03-07T11:42:25;94834.13;;;10.79;88.52
16451;BME280;12243;42.708;23.310;2024-03-07T11:44:54;94828.06;;;10.68;88.59
16451;BME280;12243;42.708;23.310;2024-03-07T11:47:22;94826.69;;;10.64;89.53
16451;BME280;12243;42.708;23.310;2024-03-07T11:49:52;94832.03;;;10.63;87.67
16451;BME280;12243;42.708;23.310;2024-03-07T11:52:19;94831.09;;;10.64;87.72
16451;BME280;12243;42.708;23.310;2024-03-07T11:54:46;94827.78;;;10.62;87.51
16451;BME280;12243;42.708;23.310;2024-03-07T11:57:15;94834.88;;;10.60;87.87
16451;BME280;12243;42.708;23.310;2024-03-07T11:59:45;94824.22;;;10.63;88.00
16451;BME280;12243;42.708;23.310;2024-03-07T12:02:18;94831.47;;;10.59;88.43
16451;BME280;12243;42.708;23.310;2024-03-07T12:04:48;94829.94;;;10.47;89.20
16451;BME280;12243;42.708;23.310;2024-03-07T12:07:17;94835.63;;;10.31;91.34
16451;BME280;12243;42.708;23.310;2024-03-07T12:09:45;94828.78;;;10.30;90.42
16451;BME280;12243;42.708;23.310;2024-03-07T12:12:17;94836.38;;;10.22;91.48
16451;BME280;12243;42.708;23.310;2024-03-07T12:14:44;94831.69;;;10.16;91.60
16451;BME280;12243;42.708;23.310;2024-03-07T12:17:11;94820.59;;;10.14;92.65
16451;BME280;12243;42.708;23.310;2024-03-07T12:19:38;94826.88;;;10.32;93.00
16451;BME280;12243;42.708;23.310;2024-03-07T12:22:08;94829.13;;;10.46;92.67
16451;BME280;12243;42.708;23.310;2024-03-07T12:24:39;94835.19;;;10.57;91.82
16451;BME280;12243;42.708;23.310;2024-03-07T12:27:08;94827.72;;;10.42;91.91
16451;BME280;12243;42.708;23.310;2024-03-07T12:29:36;94827.03;;;10.40;91.54
16451;BME280;12243;42.708;23.310;2024-03-07T12:32:05;94833.66;;;10.23;90.63
16451;BME280;12243;42.708;23.310;2024-03-07T12:34:33;94823.38;;;10.22;90.77
16451;BME280;12243;42.708;23.310;2024-03-07T12:37:03;94816.44;;;10.01;90.57
16451;BME280;12243;42.708;23.310;2024-03-07T12:39:32;94823.38;;;9.91;90.49
16451;BME280;12243;42.708;23.310;2024-03-07T12:42:03;94825.50;;;9.86;91.63
16451;BME280;12243;42.708;23.310;2024-03-07T12:44:39;94821.22;;;9.75;91.35
16451;BME280;12243;42.708;23.310;2024-03-07T12:47:09;94822.91;;;9.65;92.89
16451;BME280;12243;42.708;23.310;2024-03-07T12:49:36;94821.91;;;9.77;92.23
16451;BME280;12243;42.708;23.310;2024-03-07T12:52:05;94818.91;;;9.82;92.04
16451;BME280;12243;42.708;23.310;2024-03-07T12:54:33;94817.59;;;9.88;90.97
16451;BME280;12243;42.708;23.310;2024-03-07T12:57:00;94813.28;;;9.98;91.15
16451;BME280;12243;42.708;23.310;2024-03-07T12:59:32;94809.16;;;9.74;91.20